Time;durP1;ratioP1;P1;durP2;ratioP2;P2;SDS_P1;SDS_P2;PMS_P1;PMS_P2;Temp;Humidity;BMP_temperature;BMP_pressure;BME280_temperature;BME280_humidity;BME280_pressure;Samples;Min_cycle;Max_cycle;Signal;HPM_P1;HPM_P2
2022/01/03 00:00:17;;;;;;;6.63;5.93;;;6.90;99.90;;;;;;4934546;29;20230;-65
2022/01/03 00:02:44;;;;;;;6.40;5.37;;;6.90;99.90;;;;;;4933853;29;20254;-67
2022/01/03 00:05:10;;;;;;;6.50;5.77;;;7.00;99.90;;;;;;4932870;29;20187;-65
2022/01/03 00:07:41;;;;;;;6.03;5.10;;;7.10;99.90;;;;;;4933036;29;20560;-61
2022/01/03 00:10:08;;;;;;;6.03;5.33;;;7.20;99.90;;;;;;4933289;29;20620;-63
2022/01/03 00:12:35;;;;;;;6.27;5.57;;;7.20;99.90;;;;;;4933793;29;20701;-64
2022/01/03 00:15:03;;;;;;;6.20;5.33;;;7.20;99.90;;;;;;4933989;29;20206;-64
2022/01/03 00:17:28;;;;;;;6.27;5.40;;;7.20;99.90;;;;;;4933462;29;20210;-63
2022/01/03 00:19:54;;;;;;;7.67;5.83;;;9.20;99.90;;;;;;4934402;29;20172;-65
2022/01/03 00:22:24;;;;;;;6.17;5.53;;;7.30;99.90;;;;;;4934460;29;20425;-65
2022/01/03 00:25:03;;;;;;;6.80;5.97;;;7.40;99.90;;;;;;4934043;29;20544;-64
2022/01/03 00:27:40;;;;;;;6.50;5.80;;;7.40;99.90;;;;;;4934282;29;20670;-61
2022/01/03 00:30:07;;;;;;;6.60;5.90;;;7.50;99.90;;;;;;4934076;29;20193;-63
2022/01/03 00:32:37;;;;;;;6.20;5.47;;;7.50;99.90;;;;;;4934648;29;20593;-63
2022/01/03 00:35:03;;;;;;;8.83;6.10;;;7.60;99.90;;;;;;4932599;29;20190;-62
2022/01/03 00:37:32;;;;;;;6.40;5.80;;;7.70;99.90;;;;;;4933630;29;20211;-63
2022/01/03 00:39:59;;;;;;;7.17;5.83;;;7.70;99.90;;;;;;4933594;29;20179;-65
2022/01/03 00:42:25;;;;;;;7.23;6.10;;;7.70;99.90;;;;;;4933335;29;20180;-64
2022/01/03 00:44:52;;;;;;;7.50;6.47;;;7.70;99.90;;;;;;4933286;29;20172;-65
2022/01/03 00:47:18;;;;;;;6.63;5.57;;;7.50;99.90;;;;;;4934988;29;20270;-64
2022/01/03 00:49:45;;;;;;;5.50;4.90;;;7.50;99.90;;;;;;4937800;29;20172;-64
2022/01/03 00:52:11;;;;;;;6.77;5.57;;;7.50;99.90;;;;;;4937753;29;20577;-65
2022/01/03 00:54:37;;;;;;;6.10;5.43;;;7.40;99.90;;;;;;4937595;29;20234;-65
2022/01/03 00:57:07;;;;;;;5.40;4.70;;;7.40;99.90;;;;;;4937222;29;20203;-65
2022/01/03 00:59:43;;;;;;;5.80;5.20;;;7.30;99.90;;;;;;4937540;29;20179;-62
2022/01/03 01:02:10;;;;;;;6.43;5.10;;;7.30;99.90;;;;;;4937147;29;20218;-66
2022/01/03 01:04:37;;;;;;;6.70;5.33;;;7.30;99.90;;;;;;4936038;29;20237;-65
2022/01/03 01:07:05;;;;;;;6.73;5.77;;;7.30;99.90;;;;;;4936913;29;20597;-65
2022/01/03 01:09:33;;;;;;;6.67;5.97;;;7.40;99.90;;;;;;4937496;29;20175;-62
2022/01/03 01:12:03;;;;;;;6.90;5.80;;;7.40;99.90;;;;;;4937535;29;20202;-64
2022/01/03 01:14:29;;;;;;;8.73;6.77;;;7.40;99.90;;;;;;4935109;29;20187;-61
2022/01/03 01:16:55;;;;;;;9.23;7.17;;;7.50;99.90;;;;;;4937121;29;20759;-60
2022/01/03 01:19:21;;;;;;;8.17;6.70;;;7.60;99.90;;;;;;4937126;29;20179;-62
2022/01/03 01:21:51;;;;;;;6.90;6.20;;;7.70;99.90;;;;;;4937284;29;20210;-61
2022/01/03 01:24:20;;;;;;;7.60;6.03;;;7.60;99.90;;;;;;4936760;29;20183;-63
2022/01/03 01:29:30;;;;;;;7.90;6.43;;;7.60;99.90;;;;;;4937254;29;20194;-59
2022/01/03 01:32:00;;;;;;;7.10;5.87;;;7.70;99.90;;;;;;4937058;29;20210;-63
2022/01/03 01:34:28;;;;;;;6.77;5.93;;;7.80;99.90;;;;;;4928916;29;20199;-60
2022/01/03 01:36:58;;;;;;;6.80;6.10;;;7.80;99.90;;;;;;4936939;29;20265;-61
2022/01/03 01:39:26;;;;;;;6.87;6.00;;;7.90;99.90;;;;;;4929324;29;20183;-61
2022/01/03 01:42:01;;;;;;;6.80;6.10;;;7.90;99.90;;;;;;4936991;29;20222;-61
2022/01/03 01:44:28;;;;;;;6.10;5.30;;;8.00;99.90;;;;;;4929274;29;20182;-60
2022/01/03 01:46:55;;;;;;;6.33;5.50;;;8.00;99.90;;;;;;4936780;29;20676;-59
2022/01/03 01:49:25;;;;;;;6.10;5.50;;;7.90;99.90;;;;;;4936778;29;20179;-62
2022/01/03 01:52:02;;;;;;;6.20;5.30;;;7.80;99.90;;;;;;4936572;29;20206;-61
2022/01/03 01:54:37;;;;;;;6.40;5.27;;;7.70;99.90;;;;;;4916394;29;20180;-61
2022/01/03 01:57:17;;;;;;;6.67;5.23;;;7.60;99.90;;;;;;4933627;29;20809;-63
2022/01/03 01:59:49;;;;;;;5.73;5.13;;;7.50;99.90;;;;;;4935690;29;20274;-63
2022/01/03 02:02:29;;;;;;;7.27;5.27;;;7.30;99.90;;;;;;4935638;29;20575;-60
2022/01/03 02:05:21;;;;;;;6.67;5.80;;;7.10;99.90;;;;;;4936286;29;20171;-64
2022/01/03 02:07:53;;;;;;;6.27;5.50;;;6.90;99.90;;;;;;4930651;29;20176;-62
2022/01/03 02:10:27;;;;;;;6.73;5.40;;;6.90;99.90;;;;;;4936506;29;20269;-63
2022/01/03 02:12:53;;;;;;;6.33;5.63;;;6.90;99.90;;;;;;4935925;29;20170;-60
2022/01/03 02:15:19;;;;;;;7.10;5.97;;;6.90;99.90;;;;;;4936130;29;20175;-61
2022/01/03 02:17:48;;;;;;;8.03;5.90;;;6.90;99.90;;;;;;4935887;29;20245;-63
2022/01/03 02:20:16;;;;;;;6.90;6.20;;;6.90;99.90;;;;;;4935596;29;20187;-61
2022/01/03 02:22:43;;;;;;;6.73;6.00;;;7.00;99.90;;;;;;4935746;29;20720;-65
2022/01/03 02:25:12;;;;;;;7.20;5.87;;;7.10;99.90;;;;;;4934823;29;20175;-61
2022/01/03 02:27:38;;;;;;;7.27;6.23;;;7.20;99.90;;;;;;4935157;29;20224;-64
2022/01/03 02:32:47;;;;;;;6.80;5.73;;;7.20;99.90;;;;;;4997991;28;20221;-55
2022/01/03 02:35:13;;;;;;;7.37;6.50;;;7.30;99.90;;;;;;5015702;28;20169;-49
2022/01/03 02:37:39;;;;;;;7.00;5.77;;;7.30;99.90;;;;;;5010857;28;20205;-48
2022/01/03 02:40:07;;;;;;;7.20;6.13;;;7.40;99.90;;;;;;5012757;28;20234;-49
2022/01/03 02:42:32;;;;;;;7.77;6.30;;;7.40;99.90;;;;;;5012261;28;20192;-50
2022/01/03 02:45:14;;;;;;;8.00;6.17;;;7.40;99.90;;;;;;5012509;28;20169;-48
2022/01/03 02:47:42;;;;;;;7.47;6.10;;;7.40;99.90;;;;;;5013330;28;20231;-49
2022/01/03 02:50:09;;;;;;;8.17;6.10;;;7.20;99.90;;;;;;5011877;28;20199;-52
2022/01/03 02:52:36;;;;;;;8.77;5.93;;;7.10;99.90;;;;;;5012923;28;20203;-49
2022/01/03 02:55:03;;;;;;;7.70;5.70;;;7.10;99.90;;;;;;5012518;28;20579;-49
2022/01/03 02:57:40;;;;;;;7.73;6.10;;;7.00;99.90;;;;;;5012679;28;20215;-50
2022/01/03 03:00:10;;;;;;;7.50;5.87;;;7.00;99.90;;;;;;5012862;28;20153;-49
2022/01/03 03:02:35;;;;;;;7.00;5.90;;;7.00;99.90;;;;;;5012322;28;20660;-48
2022/01/03 03:05:04;;;;;;;7.73;6.20;;;6.90;99.90;;;;;;5012375;28;20227;-51
2022/01/03 03:07:31;;;;;;;7.23;6.30;;;6.80;99.90;;;;;;5011037;28;20180;-49
2022/01/03 03:09:58;;;;;;;6.53;5.83;;;6.70;99.90;;;;;;5012450;28;20181;-48
2022/01/03 03:12:25;;;;;;;6.90;6.17;;;6.50;99.90;;;;;;5012355;28;20636;-53
2022/01/03 03:14:50;;;;;;;7.47;6.20;;;6.50;99.90;;;;;;5012444;28;20172;-50
2022/01/03 03:17:18;;;;;;;6.97;6.03;;;6.60;99.90;;;;;;5012502;28;20200;-49
2022/01/03 03:19:59;;;;;;;6.37;5.43;;;6.70;99.90;;;;;;5012596;28;20168;-50
2022/01/03 03:22:26;;;;;;;7.00;6.30;;;6.80;99.90;;;;;;5012123;28;20188;-52
2022/01/03 03:24:58;;;;;;;8.10;6.60;;;6.80;99.90;;;;;;5012389;28;20231;-49
2022/01/03 03:27:23;;;;;;;9.27;6.00;;;6.90;99.90;;;;;;5012621;28;20652;-52
2022/01/03 03:29:50;;;;;;;7.10;5.40;;;6.80;99.90;;;;;;5012532;28;20173;-49
2022/01/03 03:32:17;;;;;;;7.77;6.03;;;6.80;99.90;;;;;;5012355;28;20697;-49
2022/01/03 03:34:45;;;;;;;7.13;5.77;;;6.70;99.90;;;;;;5012052;28;20169;-50
2022/01/03 03:37:11;;;;;;;7.47;5.80;;;6.80;99.90;;;;;;5012085;28;20231;-51
2022/01/03 03:39:39;;;;;;;7.73;5.73;;;6.90;99.90;;;;;;5011207;28;20161;-53
2022/01/03 03:42:06;;;;;;;6.67;5.77;;;6.90;99.90;;;;;;5012158;28;20189;-49
2022/01/03 03:44:33;;;;;;;6.50;5.30;;;6.90;99.90;;;;;;5011757;28;20271;-49
2022/01/03 03:47:00;;;;;;;7.20;5.57;;;7.00;99.90;;;;;;5012236;28;20172;-49
2022/01/03 03:49:25;;;;;;;6.50;5.30;;;7.00;99.90;;;;;;5011863;28;20183;-49
2022/01/03 03:51:51;;;;;;;7.47;5.47;;;6.90;99.90;;;;;;5012160;28;20208;-51
2022/01/03 03:54:17;;;;;;;6.50;5.50;;;7.00;99.90;;;;;;5011291;28;20260;-49
2022/01/03 03:56:42;;;;;;;7.00;5.30;;;7.00;99.90;;;;;;5011739;28;20227;-53
2022/01/03 03:59:08;;;;;;;5.77;5.00;;;7.00;99.90;;;;;;5011200;28;20164;-49
2022/01/03 04:01:34;;;;;;;6.50;4.90;;;7.00;99.90;;;;;;5011831;28;20731;-49
2022/01/03 04:03:59;;;;;;;6.50;5.17;;;7.10;99.90;;;;;;5011844;28;20226;-51
2022/01/03 04:06:25;;;;;;;6.47;4.93;;;7.20;99.90;;;;;;5011074;28;20180;-55
2022/01/03 04:08:50;;;;;;;5.57;4.67;;;7.40;99.90;;;;;;5012067;28;20179;-50
2022/01/03 04:11:17;;;;;;;6.07;4.93;;;7.40;99.90;;;;;;5011481;28;20196;-49
2022/01/03 04:13:42;;;;;;;5.97;5.13;;;7.50;99.90;;;;;;5011945;28;20272;-49
2022/01/03 04:16:09;;;;;;;6.13;4.47;;;7.50;99.90;;;;;;5011544;28;20283;-55
2022/01/03 04:18:35;;;;;;;5.30;4.43;;;7.50;99.90;;;;;;5011500;28;20172;-50
2022/01/03 04:21:01;;;;;;;5.97;4.33;;;7.60;99.90;;;;;;5011821;28;20203;-54
2022/01/03 04:23:26;;;;;;;4.77;4.03;;;7.60;99.90;;;;;;4996541;28;20565;-51
2022/01/03 04:25:52;;;;;;;6.20;3.80;;;7.60;99.90;;;;;;5015672;28;20199;-49
2022/01/03 04:28:21;;;;;;;4.07;3.60;;;7.60;99.90;;;;;;5015714;28;20184;-51
2022/01/03 04:30:46;;;;;;;6.07;3.80;;;7.60;99.90;;;;;;5015458;28;20212;-51
2022/01/03 04:33:12;;;;;;;4.40;3.60;;;7.70;99.90;;;;;;5015426;28;20164;-48
2022/01/03 04:35:38;;;;;;;4.33;3.03;;;7.80;99.90;;;;;;5015318;28;20720;-49
2022/01/03 04:38:05;;;;;;;4.27;3.13;;;7.90;99.90;;;;;;5015522;28;20760;-51
2022/01/03 04:40:31;;;;;;;4.47;2.43;;;7.90;99.90;;;;;;5015667;28;20172;-49
2022/01/03 04:42:56;;;;;;;4.67;2.60;;;7.90;99.90;;;;;;5015470;28;20173;-50
2022/01/03 04:45:22;;;;;;;3.73;2.87;;;8.00;99.90;;;;;;5015040;28;20207;-49
2022/01/03 04:47:48;;;;;;;4.60;2.80;;;8.00;99.90;;;;;;5014742;28;20208;-54
2022/01/03 04:50:14;;;;;;;3.93;2.70;;;8.10;99.90;;;;;;5013812;28;20243;-52
2022/01/03 04:52:39;;;;;;;5.10;2.40;;;8.10;99.90;;;;;;5015438;28;20184;-49
2022/01/03 04:55:05;;;;;;;2.37;2.10;;;8.10;99.90;;;;;;5014805;28;20204;-50
2022/01/03 04:57:31;;;;;;;3.40;2.00;;;8.10;99.90;;;;;;5014990;28;20577;-52
2022/01/03 04:59:56;;;;;;;5.40;2.23;;;8.10;99.90;;;;;;5015194;28;20173;-50
2022/01/03 05:02:22;;;;;;;2.53;1.80;;;8.10;99.90;;;;;;5013967;28;20255;-54
2022/01/03 05:04:48;;;;;;;2.90;1.90;;;8.20;99.90;;;;;;5014296;28;20188;-49
2022/01/03 05:07:13;;;;;;;3.37;1.80;;;8.30;99.90;;;;;;5013198;28;20172;-51
2022/01/03 05:09:39;;;;;;;3.23;2.07;;;8.40;99.90;;;;;;5014746;28;20259;-54
2022/01/03 05:12:05;;;;;;;2.27;1.53;;;8.60;99.90;;;;;;5014648;28;20223;-50
2022/01/03 05:14:31;;;;;;;2.80;1.67;;;8.70;99.90;;;;;;5013799;28;20260;-51
2022/01/03 05:16:57;;;;;;;3.60;2.47;;;8.80;99.90;;;;;;5014497;28;20211;-51
2022/01/03 05:19:26;;;;;;;2.83;2.20;;;8.80;99.90;;;;;;5014709;28;20226;-48
2022/01/03 05:21:53;;;;;;;4.73;2.30;;;8.70;99.90;;;;;;5014445;28;20193;-53
2022/01/03 05:24:19;;;;;;;4.70;2.40;;;8.50;99.90;;;;;;5014539;28;20511;-50
2022/01/03 05:26:44;;;;;;;2.53;2.10;;;8.40;99.90;;;;;;5014337;28;20180;-50
2022/01/03 05:29:10;;;;;;;2.23;2.03;;;8.30;99.90;;;;;;5014668;28;20176;-48
2022/01/03 05:31:36;;;;;;;2.40;1.80;;;8.30;99.90;;;;;;5014509;28;20700;-55
2022/01/03 05:34:02;;;;;;;2.00;1.80;;;8.30;99.90;;;;;;5013484;28;20245;-55
2022/01/03 05:36:28;;;;;;;4.00;1.80;;;8.30;99.90;;;;;;5014441;28;20199;-48
2022/01/03 05:38:54;;;;;;;1.67;1.40;;;8.20;99.90;;;;;;4996562;28;20173;-54
2022/01/03 05:41:20;;;;;;;1.50;1.33;;;8.20;99.90;;;;;;5014430;28;20188;-56
2022/01/03 05:43:45;;;;;;;1.30;1.10;;;8.20;99.90;;;;;;5014143;28;20192;-50
2022/01/03 05:46:12;;;;;;;3.37;1.30;;;8.20;99.90;;;;;;5014129;28;20592;-51
2022/01/03 05:48:38;;;;;;;2.17;1.50;;;8.20;99.90;;;;;;4996413;28;20194;-54
2022/01/03 05:51:03;;;;;;;1.53;1.20;;;8.00;99.90;;;;;;5014230;28;20569;-49
2022/01/03 05:53:32;;;;;;;2.47;1.10;;;7.90;99.90;;;;;;5014378;28;20176;-48
2022/01/03 05:56:00;;;;;;;0.93;0.83;;;7.90;99.90;;;;;;5013624;28;20677;-49
2022/01/03 05:58:27;;;;;;;2.37;1.00;;;8.00;99.90;;;;;;5014047;28;20179;-53
2022/01/03 06:00:53;;;;;;;2.30;1.00;;;8.00;99.90;;;;;;5013014;28;20232;-58
2022/01/03 06:03:21;;;;;;;1.40;0.80;;;8.10;99.90;;;;;;5013878;28;20203;-49
2022/01/03 06:08:22;;;;;;;0.63;0.63;;;8.10;99.90;;;;;;5013339;28;20604;-55
2022/01/03 06:10:48;;;;;;;2.20;0.80;;;8.90;99.90;;;;;;5013112;28;20224;-56
2022/01/03 06:13:15;;;;;;;0.43;0.43;;;8.00;99.90;;;;;;5013570;28;20165;-51
2022/01/03 06:15:41;;;;;;;1.63;0.50;;;7.90;99.90;;;;;;5013478;28;20173;-56
2022/01/03 06:18:11;;;;;;;1.30;0.60;;;7.90;99.90;;;;;;5013322;28;20196;-55
2022/01/03 06:20:41;;;;;;;1.03;0.63;;;7.90;99.90;;;;;;5013778;28;20199;-50
2022/01/03 06:23:09;;;;;;;1.83;0.83;;;7.70;99.90;;;;;;5013533;28;20185;-55
2022/01/03 06:25:34;;;;;;;1.13;0.77;;;7.60;99.90;;;;;;5013482;28;20250;-54
2022/01/03 06:28:00;;;;;;;2.23;1.03;;;7.40;99.90;;;;;;5013329;28;20177;-55
2022/01/03 06:30:26;;;;;;;1.00;1.00;;;7.20;99.90;;;;;;5013549;28;20180;-54
2022/01/03 06:32:51;;;;;;;2.47;1.27;;;7.20;99.90;;;;;;4995731;28;20561;-54
2022/01/03 06:35:17;;;;;;;1.80;1.40;;;7.10;99.90;;;;;;5013225;28;20530;-49
2022/01/03 06:37:43;;;;;;;2.57;1.30;;;7.10;99.90;;;;;;5012965;28;20219;-55
2022/01/03 06:40:09;;;;;;;1.30;1.20;;;7.10;99.90;;;;;;5013116;28;20172;-55
2022/01/03 06:42:34;;;;;;;1.43;1.17;;;7.10;99.90;;;;;;5013325;28;20247;-53
2022/01/03 06:45:00;;;;;;;3.27;1.60;;;7.10;99.90;;;;;;5011435;28;20625;-52
2022/01/03 06:47:26;;;;;;;3.17;1.60;;;7.00;99.90;;;;;;4995672;28;20613;-54
2022/01/03 06:49:52;;;;;;;1.47;1.30;;;7.00;99.90;;;;;;5012777;28;20181;-56
2022/01/03 06:52:17;;;;;;;1.30;1.20;;;7.00;99.90;;;;;;5012936;28;20558;-52
2022/01/03 06:54:43;;;;;;;2.63;1.13;;;7.00;99.90;;;;;;5012206;28;20168;-54
2022/01/03 06:57:10;;;;;;;1.40;1.30;;;7.00;99.90;;;;;;5012851;28;20207;-55
2022/01/03 06:59:36;;;;;;;2.87;1.40;;;6.90;99.90;;;;;;5013135;28;20173;-54
2022/01/03 07:02:02;;;;;;;1.30;1.20;;;6.90;99.90;;;;;;5012847;28;20254;-52
2022/01/03 07:04:28;;;;;;;4.13;1.33;;;6.80;99.90;;;;;;5012084;28;20259;-52
2022/01/03 07:06:53;;;;;;;1.80;1.40;;;6.70;99.90;;;;;;5012435;28;20216;-54
2022/01/03 07:09:19;;;;;;;3.67;1.33;;;6.80;99.90;;;;;;5012711;28;20668;-56
2022/01/03 07:11:45;;;;;;;1.93;1.20;;;6.80;99.90;;;;;;5012631;28;20249;-55
2022/01/03 07:19:43;;;;;;;1.67;1.50;;;6.80;99.90;;;;;;5013018;28;20331;-55
2022/01/03 07:22:10;;;;;;;2.27;1.40;;;6.80;99.90;;;;;;5012269;28;20267;-54
2022/01/03 07:24:37;;;;;;;1.63;1.10;;;6.90;99.90;;;;;;5012345;28;20169;-56
2022/01/03 07:27:05;;;;;;;3.03;1.20;;;6.90;99.90;;;;;;5012517;28;20172;-56
2022/01/03 07:29:31;;;;;;;1.10;1.00;;;7.00;99.90;;;;;;5011604;28;20188;-53
2022/01/03 07:31:57;;;;;;;1.40;1.17;;;7.00;99.90;;;;;;5012111;28;20212;-49
2022/01/03 07:34:23;;;;;;;1.73;0.87;;;7.10;99.90;;;;;;5011917;28;20207;-53
2022/01/03 07:36:49;;;;;;;0.93;0.77;;;7.20;99.90;;;;;;5012216;28;20200;-49
2022/01/03 07:39:14;;;;;;;1.90;0.97;;;7.40;99.90;;;;;;5012030;28;20571;-53
2022/01/03 07:41:40;;;;;;;1.63;0.90;;;7.40;99.90;;;;;;4994732;28;20199;-48
2022/01/03 07:44:05;;;;;;;2.20;1.03;;;7.40;99.90;;;;;;5011796;28;20172;-53
2022/01/03 07:46:31;;;;;;;1.00;0.90;;;7.30;99.90;;;;;;5012312;28;20180;-52
2022/01/03 07:48:56;;;;;;;2.13;1.00;;;7.20;99.90;;;;;;5011540;28;20181;-49
2022/01/03 07:51:22;;;;;;;1.10;0.80;;;7.10;99.90;;;;;;5012025;28;20215;-51
2022/01/03 07:53:48;;;;;;;1.63;0.80;;;7.00;99.90;;;;;;5012128;28;20235;-50
2022/01/03 07:56:14;;;;;;;1.83;1.07;;;7.00;99.90;;;;;;5011378;28;20667;-51
2022/01/03 07:58:40;;;;;;;1.10;1.00;;;6.90;99.90;;;;;;5011525;28;20196;-52
2022/01/03 08:01:05;;;;;;;3.17;1.30;;;6.90;99.90;;;;;;5011851;28;20260;-49
2022/01/03 08:03:31;;;;;;;1.53;1.23;;;6.80;99.90;;;;;;5011970;28;20175;-51
2022/01/03 08:05:57;;;;;;;1.00;0.90;;;6.80;99.90;;;;;;5011487;28;20172;-49
2022/01/03 08:08:23;;;;;;;1.83;1.20;;;6.90;99.90;;;;;;5008827;28;20177;-54
2022/01/03 08:10:49;;;;;;;1.10;0.93;;;7.00;99.90;;;;;;5001716;28;20271;-49
2022/01/03 08:13:15;;;;;;;1.20;1.03;;;7.10;99.90;;;;;;5000675;28;20248;-55
2022/01/03 08:15:41;;;;;;;1.73;0.97;;;7.30;99.90;;;;;;4999902;28;20234;-54
2022/01/03 08:18:07;;;;;;;1.00;0.90;;;7.60;99.90;;;;;;5001485;28;20572;-55
2022/01/03 08:20:33;;;;;;;0.87;0.80;;;7.90;99.90;;;;;;5000538;28;20211;-56
2022/01/03 08:23:00;;;;;;;1.27;0.60;;;8.00;99.90;;;;;;5008106;28;20231;-51
2022/01/03 08:25:25;;;;;;;0.70;0.53;;;8.20;99.90;;;;;;5011452;28;20180;-52
2022/01/03 08:27:51;;;;;;;1.67;0.83;;;8.40;99.90;;;;;;5011798;28;20645;-49
2022/01/03 08:30:17;;;;;;;1.77;0.80;;;8.60;99.90;;;;;;5011385;28;20172;-48
2022/01/03 08:32:43;;;;;;;2.83;0.80;;;8.70;99.90;;;;;;5029811;23;20221;-64
2022/01/03 08:35:09;;;;;;;1.60;0.83;;;8.80;99.90;;;;;;5009300;28;20642;-66
2022/01/03 08:37:35;;;;;;;1.23;0.70;;;8.80;99.90;;;;;;5011853;28;20302;-61
2022/01/03 08:40:04;;;;;;;1.40;0.87;;;8.70;99.90;;;;;;5012082;28;20255;-64
2022/01/03 08:42:34;;;;;;;0.70;0.60;;;8.70;99.90;;;;;;5033441;28;20187;-64
2022/01/03 08:45:01;;;;;;;1.20;0.70;;;8.90;99.90;;;;;;5050554;28;20182;-65
2022/01/03 08:47:27;;;;;;;2.73;0.77;;;9.00;99.90;;;;;;5032961;28;20528;-65
2022/01/03 08:49:52;;;;;;;1.73;0.70;;;9.00;99.90;;;;;;5039184;28;20258;-63
2022/01/03 08:52:18;;;;;;;0.63;0.63;;;8.90;99.90;;;;;;5030396;28;20283;-65
2022/01/03 08:54:44;;;;;;;1.57;0.93;;;8.90;99.90;;;;;;5021454;28;20268;-64
2022/01/03 08:57:09;;;;;;;0.60;0.60;;;9.00;99.90;;;;;;5018962;28;20248;-64
2022/01/03 08:59:35;;;;;;;2.00;0.77;;;9.10;99.90;;;;;;5002626;28;20707;-65
2022/01/03 09:02:00;;;;;;;1.97;0.80;;;9.20;99.90;;;;;;5020896;28;20184;-65
2022/01/03 09:04:26;;;;;;;0.70;0.70;;;9.20;99.90;;;;;;5018749;28;20173;-62
2022/01/03 09:06:52;;;;;;;1.63;0.80;;;9.20;99.90;;;;;;5023591;28;20688;-62
2022/01/03 09:09:18;;;;;;;1.07;0.70;;;9.20;99.90;;;;;;5024816;28;20659;-63
2022/01/03 09:11:44;;;;;;;2.23;0.93;;;9.30;99.90;;;;;;5022358;28;20247;-65
2022/01/03 09:14:10;;;;;;;2.33;0.90;;;9.30;99.90;;;;;;5023297;28;20192;-60
2022/01/03 09:16:35;;;;;;;1.40;0.80;;;9.00;99.90;;;;;;5023548;28;20192;-61
2022/01/03 09:19:01;;;;;;;1.80;0.97;;;8.70;99.90;;;;;;5022268;28;20184;-64
2022/01/03 09:21:28;;;;;;;3.90;0.90;;;8.70;99.90;;;;;;5023598;28;20565;-62
2022/01/03 09:24:18;;;;;;;1.77;0.90;;;8.70;99.90;;;;;;5019361;28;20180;-62
2022/01/03 09:29:23;;;;;;;1.10;0.50;;;9.00;99.90;;;;;;5014897;28;20191;-64
2022/01/03 09:31:49;;;;;;;1.30;1.20;;;9.20;99.90;;;;;;5014127;28;20577;-63
2022/01/03 09:34:14;;;;;;;2.10;1.30;;;9.40;99.90;;;;;;4996657;28;20196;-63
2022/01/03 09:36:40;;;;;;;2.73;1.73;;;9.60;99.90;;;;;;5014022;28;20197;-64
2022/01/03 09:39:07;;;;;;;1.87;1.50;;;9.80;99.90;;;;;;5014482;28;20180;-66
2022/01/03 09:41:33;;;;;;;1.60;1.50;;;9.90;99.90;;;;;;5027833;28;20192;-65
2022/01/03 09:44:04;;;;;;;2.27;2.00;;;9.90;99.90;;;;;;5042189;28;20657;-64
2022/01/03 09:46:33;;;;;;;1.40;1.30;;;9.70;99.90;;;;;;5033999;28;20226;-65
2022/01/03 09:48:59;;;;;;;0.97;0.80;;;9.60;99.90;;;;;;5033861;28;20176;-64
2022/01/03 09:51:27;;;;;;;1.37;0.87;;;9.60;99.90;;;;;;5033731;28;20179;-65
2022/01/03 09:53:55;;;;;;;1.97;0.83;;;9.60;99.90;;;;;;5033290;28;20179;-61
2022/01/03 09:56:21;;;;;;;0.77;0.70;;;9.60;99.90;;;;;;5027500;28;20227;-64
2022/01/03 09:58:47;;;;;;;1.37;0.90;;;9.80;99.90;;;;;;5030550;28;20183;-65
2022/01/03 10:01:14;;;;;;;1.23;1.10;;;9.90;99.90;;;;;;5033622;28;20226;-65
2022/01/03 10:03:47;;;;;;;1.03;0.93;;;10.00;99.90;;;;;;5026284;28;20700;-65
2022/01/03 10:06:17;;;;;;;3.57;1.33;;;11.70;99.90;;;;;;5022562;28;20263;-62
2022/01/03 10:08:43;;;;;;;2.10;1.43;;;10.20;99.90;;;;;;5021675;28;20175;-61
2022/01/03 10:11:09;;;;;;;1.13;1.03;;;10.40;99.90;;;;;;5021080;28;20699;-60
2022/01/03 10:13:35;;;;;;;1.27;1.17;;;10.30;99.90;;;;;;5022693;28;20620;-61
2022/01/03 10:16:00;;;;;;;3.07;1.37;;;10.20;99.90;;;;;;5020789;28;20168;-60
2022/01/03 10:18:26;;;;;;;1.87;1.43;;;10.30;99.90;;;;;;5021415;28;20354;-64
2022/01/03 10:20:52;;;;;;;2.73;1.17;;;10.40;99.90;;;;;;5021549;28;20821;-62
2022/01/03 10:23:18;;;;;;;1.43;1.00;;;10.70;99.90;;;;;;5020952;28;20200;-64
2022/01/03 10:25:46;;;;;;;1.63;1.13;;;10.90;99.90;;;;;;5021008;28;20179;-62
2022/01/03 10:28:24;;;;;;;2.07;1.20;;;11.40;99.90;;;;;;5022632;28;20271;-62
2022/01/03 10:30:51;;;;;;;1.00;0.90;;;11.10;99.90;;;;;;5002954;28;20188;-62
2022/01/03 10:33:20;;;;;;;1.40;1.07;;;11.30;99.90;;;;;;5021757;28;20207;-62
2022/01/03 10:35:52;;;;;;;1.97;1.60;;;11.50;99.90;;;;;;5021911;28;20224;-65
2022/01/03 10:38:41;;;;;;;1.53;1.00;;;11.50;99.90;;;;;;5020767;28;20200;-63
2022/01/03 10:41:21;;;;;;;2.87;1.47;;;11.40;99.90;;;;;;5022593;28;20252;-64
2022/01/03 10:43:50;;;;;;;3.87;1.87;;;11.30;99.90;;;;;;5022106;28;20200;-61
2022/01/03 10:46:20;;;;;;;1.80;1.37;;;11.10;99.90;;;;;;5004451;28;20168;-63
2022/01/03 10:48:47;;;;;;;2.07;1.80;;;10.90;99.90;;;;;;5020883;28;20232;-62
2022/01/03 10:51:22;;;;;;;1.67;1.57;;;10.80;99.90;;;;;;4990744;28;20534;-62
2022/01/03 10:53:47;;;;;;;1.07;0.97;;;10.80;99.90;;;;;;5012757;28;20658;-61
2022/01/03 10:56:29;;;;;;;1.47;1.10;;;10.60;99.90;;;;;;5012591;28;20172;-62
2022/01/03 10:59:00;;;;;;;2.40;1.10;;;10.60;99.90;;;;;;5012907;28;20617;-64
2022/01/03 11:01:29;;;;;;;1.73;1.50;;;10.90;99.90;;;;;;5015341;28;20169;-64
2022/01/03 11:03:58;;;;;;;1.87;1.40;;;11.30;99.90;;;;;;5027959;28;20172;-62
2022/01/03 11:11:38;;;;;;;2.90;2.70;;;12.30;99.90;;;;;;5040537;28;20250;-61
2022/01/03 11:14:05;;;;;;;1.20;1.10;;;12.50;99.90;;;;;;5031225;28;20199;-60
2022/01/03 11:16:42;;;;;;;1.73;1.57;;;12.40;99.90;;;;;;5030741;28;20211;-62
2022/01/03 11:19:08;;;;;;;11.03;9.93;;;12.30;99.90;;;;;;5016718;28;20661;-64
2022/01/03 11:21:43;;;;;;;6.30;5.70;;;12.30;99.90;;;;;;5011851;28;20260;-62
2022/01/03 11:24:11;;;;;;;2.60;2.40;;;12.90;99.90;;;;;;5011500;28;20187;-61
2022/01/03 11:26:46;;;;;;;2.63;2.10;;;12.20;99.90;;;;;;5012203;28;20172;-62
2022/01/03 11:29:13;;;;;;;3.33;1.70;;;12.00;99.90;;;;;;5012706;28;20171;-62
2022/01/03 11:31:40;;;;;;;2.30;1.50;;;11.90;99.90;;;;;;5012072;28;20231;-64
2022/01/03 11:34:11;;;;;;;2.63;1.80;;;11.80;99.90;;;;;;5012084;28;20195;-64
2022/01/03 11:36:39;;;;;;;4.03;1.60;;;11.80;99.90;;;;;;5012095;28;20196;-64
2022/01/03 11:39:09;;;;;;;4.50;4.10;;;11.60;99.90;;;;;;5012468;28;20173;-64
2022/01/03 11:41:41;;;;;;;4.10;3.70;;;11.50;99.90;;;;;;5012020;28;20212;-63
2022/01/03 11:44:10;;;;;;;3.70;2.70;;;11.40;99.90;;;;;;5012172;28;20252;-64
2022/01/03 11:46:36;;;;;;;2.00;1.67;;;11.40;99.90;;;;;;5012095;28;20165;-61
2022/01/03 11:49:02;;;;;;;1.97;1.77;;;11.50;99.90;;;;;;5012350;28;20207;-61
2022/01/03 11:51:30;;;;;;;3.50;2.27;;;11.40;99.90;;;;;;5012295;28;20204;-62
2022/01/03 11:53:57;;;;;;;3.10;2.80;;;11.50;99.90;;;;;;5012135;28;20169;-66
2022/01/03 11:56:25;;;;;;;7.97;5.77;;;11.40;99.90;;;;;;5012158;28;20204;-64
2022/01/03 12:04:13;;;;;;;2.00;1.73;;;13.10;99.90;;;;;;5011917;28;20211;-63
2022/01/03 12:06:40;;;;;;;2.47;1.90;;;12.60;99.90;;;;;;5011929;28;20176;-64
2022/01/03 12:09:14;;;;;;;2.27;2.07;;;11.20;99.90;;;;;;5011823;28;20279;-62
2022/01/03 12:11:53;;;;;;;2.40;2.00;;;11.20;99.90;;;;;;5012021;28;20208;-64
2022/01/03 12:14:19;;;;;;;4.23;3.30;;;11.20;99.90;;;;;;5011325;28;20200;-62
2022/01/03 12:16:48;;;;;;;4.13;3.20;;;11.20;99.90;;;;;;5011937;28;20255;-63
2022/01/03 12:19:35;;;;;;;2.63;2.17;;;11.10;99.90;;;;;;5011693;28;20173;-61
2022/01/03 12:22:15;;;;;;;5.70;5.10;;;11.10;99.90;;;;;;5011877;28;20184;-62
2022/01/03 12:24:49;;;;;;;3.83;3.37;;;11.10;99.90;;;;;;5011223;28;20216;-63
2022/01/03 12:27:15;;;;;;;2.60;2.00;;;11.00;99.90;;;;;;5011896;28;20272;-63
2022/01/03 12:29:56;;;;;;;3.40;2.30;;;10.90;99.90;;;;;;5011688;28;20251;-63
2022/01/03 12:32:27;;;;;;;3.80;2.40;;;10.60;99.90;;;;;;4993817;28;20211;-62
2022/01/03 12:35:12;;;;;;;3.10;1.80;;;10.30;99.90;;;;;;5011115;28;20199;-63
2022/01/03 12:37:54;;;;;;;2.73;1.80;;;10.20;99.90;;;;;;5011590;28;20196;-61
2022/01/03 12:40:32;;;;;;;2.03;1.80;;;10.20;99.90;;;;;;5011311;28;20196;-65
2022/01/03 12:43:01;;;;;;;4.17;2.90;;;10.10;99.90;;;;;;5011694;28;20188;-62
2022/01/03 12:45:29;;;;;;;3.73;2.83;;;10.20;99.90;;;;;;5014966;28;20176;-63
2022/01/03 12:48:19;;;;;;;2.93;2.73;;;10.30;99.90;;;;;;5015090;28;20180;-63
2022/01/03 12:50:52;;;;;;;2.57;1.60;;;10.40;99.90;;;;;;5015017;28;20176;-58
2022/01/03 12:53:23;;;;;;;2.90;1.70;;;10.30;99.90;;;;;;5015090;28;20188;-62
2022/01/03 12:55:53;;;;;;;3.13;1.80;;;10.10;99.90;;;;;;5014634;28;20268;-62
2022/01/03 12:58:18;;;;;;;2.83;1.83;;;10.10;99.90;;;;;;4997656;28;20263;-61
2022/01/03 13:00:52;;;;;;;4.60;1.73;;;10.00;99.90;;;;;;5015213;28;20176;-61
2022/01/03 13:03:28;;;;;;;3.03;1.57;;;9.80;99.90;;;;;;5015033;28;20193;-61
2022/01/03 13:06:05;;;;;;;2.70;2.00;;;9.70;99.90;;;;;;5025452;28;20641;-63
2022/01/03 13:08:34;;;;;;;2.53;1.60;;;9.80;99.90;;;;;;5034305;28;20195;-65
2022/01/03 13:11:06;;;;;;;1.60;1.27;;;9.80;99.90;;;;;;5035267;28;20648;-62
2022/01/03 13:13:32;;;;;;;3.20;1.30;;;9.90;99.90;;;;;;5034605;28;20192;-62
2022/01/03 13:15:58;;;;;;;2.83;1.27;;;9.60;99.90;;;;;;5034578;28;20195;-62
2022/01/03 13:18:23;;;;;;;3.10;1.60;;;9.40;99.90;;;;;;5034264;28;20238;-63
2022/01/03 13:20:56;;;;;;;2.53;1.30;;;9.40;99.90;;;;;;5016955;28;20175;-61
2022/01/03 13:23:24;;;;;;;2.07;1.13;;;9.50;99.90;;;;;;5034314;28;20199;-63
2022/01/03 13:25:50;;;;;;;2.17;1.37;;;9.60;99.90;;;;;;5034102;28;20262;-63